Time;durP1;ratioP1;P1;durP2;ratioP2;P2;SDS_P1;SDS_P2;PMS_P1;PMS_P2;Temp;Humidity;BMP_temperature;BMP_pressure;BME280_temperature;BME280_humidity;BME280_pressure;Samples;Min_cycle;Max_cycle;Signal;HPM_P1;HPM_P2
2021/12/24 00:00:50;;;;;;;4.93;3.43;;;;;;;;;;5111760;28;20530;-79
2021/12/24 00:03:18;;;;;;;3.53;2.50;;;;;;;;;;5110635;28;20450;-80
2021/12/24 00:05:45;;;;;;;5.40;3.40;;;;;;;;;;5114365;28;20586;-80
2021/12/24 00:08:13;;;;;;;4.53;3.60;;;;;;;;;;5114790;28;20447;-80
2021/12/24 00:10:43;;;;;;;4.37;3.30;;;;;;;;;;5115013;28;20527;-80
2021/12/24 00:13:13;;;;;;;4.40;2.93;;;;;;;;;;5115283;28;20459;-80
2021/12/24 00:15:55;;;;;;;4.47;2.83;;;;;;;;;;5115255;28;20435;-80
2021/12/24 00:18:33;;;;;;;7.87;3.83;;;;;;;;;;5114635;28;20533;-76
2021/12/24 00:37:37;;;;;;;4.57;2.70;;;;;;;;;;5115071;28;20461;-78
2021/12/24 00:40:12;;;;;;;3.90;2.93;;;;;;;;;;5113673;28;20530;-78
2021/12/24 00:42:44;;;;;;;4.17;3.20;;;;;;;;;;5114638;28;20933;-78
2021/12/24 00:45:11;;;;;;;4.37;3.07;;;;;;;;;;5114128;28;20962;-78
2021/12/24 00:47:38;;;;;;;3.67;2.77;;;;;;;;;;5114420;28;20465;-78
2021/12/24 00:50:09;;;;;;;9.73;3.30;;;;;;;;;;5113745;28;20538;-76
2021/12/24 00:52:48;;;;;;;4.67;3.40;;;;;;;;;;5114772;28;20447;-78
2021/12/24 00:55:15;;;;;;;9.73;3.30;;;;;;;;;;5114228;28;20803;-78
2021/12/24 00:57:44;;;;;;;3.83;3.13;;;;;;;;;;5114771;28;20860;-78
2021/12/24 01:00:13;;;;;;;3.30;2.70;;;;;;;;;;5113793;28;20530;-78
2021/12/24 01:02:40;;;;;;;3.20;2.90;;;;;;;;;;5114552;28;20448;-78
2021/12/24 01:05:08;;;;;;;9.70;3.47;;;;;;;;;;5113916;28;20491;-78
2021/12/24 01:07:35;;;;;;;3.87;2.97;;;;;;;;;;5114335;28;20803;-77
2021/12/24 01:10:02;;;;;;;3.87;2.60;;;;;;;;;;5113524;28;20465;-78
2021/12/24 01:12:29;;;;;;;4.73;2.90;;;;;;;;;;5113919;28;20932;-78
2021/12/24 01:14:58;;;;;;;3.67;3.13;;;;;;;;;;5114295;28;20455;-78
2021/12/24 01:17:34;;;;;;;4.70;3.17;;;;;;;;;;5113529;28;20534;-78
2021/12/24 01:20:07;;;;;;;3.57;2.93;;;;;;;;;;5113258;28;20457;-78
2021/12/24 01:25:31;;;;;;;6.47;4.73;;;;;;;;;;5113944;28;20466;-78
2021/12/24 01:28:30;;;;;;;3.67;2.50;;;;;;;;;;5113706;28;20451;-72
2021/12/24 01:39:19;;;;;;;4.93;3.33;;;;;;;;;;5112883;28;20500;-78
2021/12/24 01:44:31;;;;;;;5.00;3.13;;;;;;;;;;5113811;28;20470;-76
2021/12/24 01:47:01;;;;;;;3.73;2.90;;;;;;;;;;5113456;28;20453;-78
2021/12/24 01:49:28;;;;;;;4.23;2.97;;;;;;;;;;5113327;28;20446;-78
2021/12/24 01:51:57;;;;;;;4.53;2.97;;;;;;;;;;5113372;28;20943;-79
2021/12/24 01:54:24;;;;;;;3.23;2.83;;;;;;;;;;5113726;28;20526;-78
2021/12/24 01:56:51;;;;;;;3.83;2.67;;;;;;;;;;5113743;28;20451;-78
2021/12/24 01:59:19;;;;;;;4.07;2.97;;;;;;;;;;5112582;28;20454;-79
2021/12/24 02:01:46;;;;;;;3.93;2.80;;;;;;;;;;5113489;28;20444;-78
2021/12/24 02:04:14;;;;;;;4.20;3.20;;;;;;;;;;5112810;28;20443;-79
2021/12/24 02:06:42;;;;;;;5.87;3.53;;;;;;;;;;5113660;28;20845;-78
2021/12/24 02:09:10;;;;;;;3.63;2.73;;;;;;;;;;5112351;28;20482;-78
2021/12/24 02:11:38;;;;;;;3.57;2.53;;;;;;;;;;5113394;28;20872;-77
2021/12/24 02:14:06;;;;;;;4.80;2.60;;;;;;;;;;5112907;28;20538;-78
2021/12/24 02:16:48;;;;;;;4.60;2.70;;;;;;;;;;5113240;28;20447;-77
2021/12/24 02:30:33;;;;;;;4.33;2.23;;;;;;;;;;5100201;28;20411;-78
2021/12/24 02:33:00;;;;;;;3.07;2.77;;;;;;;;;;5112442;28;20530;-77
2021/12/24 02:35:27;;;;;;;2.87;2.43;;;;;;;;;;5118165;28;20458;-77
2021/12/24 02:37:55;;;;;;;3.83;2.70;;;;;;;;;;5128814;28;20530;-78
2021/12/24 02:40:23;;;;;;;3.37;2.10;;;;;;;;;;5128358;28;20499;-78
2021/12/24 02:42:54;;;;;;;2.90;2.40;;;;;;;;;;5115884;28;20967;-78
2021/12/24 02:45:21;;;;;;;4.20;2.90;;;;;;;;;;5113549;28;20517;-78
2021/12/24 02:48:11;;;;;;;4.93;3.10;;;;;;;;;;5112801;28;20444;-78
2021/12/24 02:56:13;;;;;;;3.70;2.80;;;;;;;;;;5111680;28;20938;-78
2021/12/24 02:58:41;;;;;;;5.07;2.60;;;;;;;;;;5112164;28;20446;-78
2021/12/24 03:01:09;;;;;;;3.40;2.70;;;;;;;;;;5111759;28;20439;-77
2021/12/24 03:03:36;;;;;;;3.60;2.40;;;;;;;;;;5112033;28;20973;-77
2021/12/24 03:06:03;;;;;;;3.10;2.00;;;;;;;;;;5111383;28;20983;-77
2021/12/24 03:08:32;;;;;;;8.33;2.50;;;;;;;;;;5111585;28;20444;-78
2021/12/24 03:10:59;;;;;;;3.70;2.53;;;;;;;;;;5111438;28;20448;-77
2021/12/24 03:13:27;;;;;;;3.07;2.60;;;;;;;;;;5111956;28;20931;-77
2021/12/24 03:15:56;;;;;;;2.83;2.20;;;;;;;;;;5112401;28;20454;-78
2021/12/24 03:18:27;;;;;;;3.40;2.10;;;;;;;;;;5111430;28;20451;-78
2021/12/24 03:21:01;;;;;;;4.07;2.40;;;;;;;;;;5111927;28;20443;-78
2021/12/24 03:23:40;;;;;;;3.27;2.13;;;;;;;;;;5111759;28;20459;-78
2021/12/24 03:26:10;;;;;;;2.67;2.17;;;;;;;;;;5111128;28;20471;-77
2021/12/24 03:28:37;;;;;;;3.27;2.70;;;;;;;;;;5111247;28;20536;-78
2021/12/24 03:31:05;;;;;;;3.03;2.23;;;;;;;;;;5111429;28;20448;-77
2021/12/24 03:33:33;;;;;;;5.30;2.90;;;;;;;;;;5111836;28;20450;-77
2021/12/24 03:36:01;;;;;;;20.07;3.07;;;;;;;;;;5110972;28;20451;-77
2021/12/24 03:38:28;;;;;;;2.40;2.20;;;;;;;;;;5111383;28;20444;-78
2021/12/24 03:40:56;;;;;;;4.00;2.57;;;;;;;;;;5111778;28;20440;-78
2021/12/24 03:43:25;;;;;;;3.13;2.63;;;;;;;;;;5097669;28;20450;-78
2021/12/24 03:46:00;;;;;;;4.47;2.30;;;;;;;;;;5111230;28;21090;-77
2021/12/24 03:48:39;;;;;;;2.90;2.20;;;;;;;;;;5111192;28;20499;-78
2021/12/24 03:51:23;;;;;;;3.23;2.17;;;;;;;;;;5110824;28;20444;-77
2021/12/24 03:56:35;;;;;;;4.80;2.70;;;;;;;;;;5111558;28;20506;-78
2021/12/24 03:59:04;;;;;;;3.10;2.70;;;;;;;;;;5110261;28;20442;-77
2021/12/24 04:01:32;;;;;;;3.10;2.40;;;;;;;;;;5111766;28;20448;-77
2021/12/24 04:03:59;;;;;;;3.73;2.50;;;;;;;;;;5111015;28;20453;-72
2021/12/24 04:06:26;;;;;;;2.90;2.30;;;;;;;;;;5111927;28;20499;-78
2021/12/24 04:08:53;;;;;;;3.40;2.37;;;;;;;;;;5111152;28;20808;-78
2021/12/24 04:11:21;;;;;;;2.73;2.00;;;;;;;;;;5111222;28;20527;-78
2021/12/24 04:13:48;;;;;;;3.87;2.20;;;;;;;;;;5111621;28;20456;-78
2021/12/24 04:16:16;;;;;;;3.77;2.30;;;;;;;;;;5111041;28;20444;-77
2021/12/24 04:18:51;;;;;;;4.50;2.20;;;;;;;;;;5110859;28;20492;-77
2021/12/24 04:26:47;;;;;;;3.10;2.20;;;;;;;;;;5111069;28;20467;-78
2021/12/24 04:29:14;;;;;;;3.27;2.20;;;;;;;;;;5110475;28;20447;-78
2021/12/24 04:31:46;;;;;;;3.00;2.30;;;;;;;;;;5111283;28;20535;-77
2021/12/24 04:34:14;;;;;;;2.53;1.83;;;;;;;;;;5110905;28;20502;-78
2021/12/24 04:37:08;;;;;;;4.20;2.73;;;;;;;;;;5111046;28;20525;-78
2021/12/24 04:39:44;;;;;;;3.77;1.93;;;;;;;;;;5110346;28;20939;-77
2021/12/24 05:01:12;;;;;;;2.93;2.23;;;;;;;;;;5113602;28;20431;-79
2021/12/24 05:01:49;;;;;;;3.37;2.50;;;;;;;;;;5114441;28;20493;-80
2021/12/24 05:04:25;;;;;;;2.90;2.53;;;;;;;;;;5114237;28;20479;-80
2021/12/24 05:06:58;;;;;;;6.20;2.27;;;;;;;;;;5114144;28;20487;-80
2021/12/24 05:09:26;;;;;;;2.97;2.30;;;;;;;;;;5100800;28;20447;-80
2021/12/24 05:11:53;;;;;;;5.33;2.60;;;;;;;;;;5114441;28;20848;-79
2021/12/24 05:14:20;;;;;;;3.00;2.20;;;;;;;;;;5114157;28;20542;-79
2021/12/24 05:16:50;;;;;;;3.60;2.30;;;;;;;;;;5124032;28;20454;-79
2021/12/24 05:22:04;;;;;;;4.07;2.37;;;;;;;;;;5123573;28;20465;-79
2021/12/24 05:24:31;;;;;;;2.53;2.20;;;;;;;;;;5117630;28;20442;-79
2021/12/24 05:26:59;;;;;;;4.63;2.60;;;;;;;;;;5114807;28;20837;-80
2021/12/24 05:29:26;;;;;;;2.30;2.10;;;;;;;;;;5114401;28;20539;-79
2021/12/24 05:31:54;;;;;;;3.50;2.30;;;;;;;;;;5113886;28;20954;-79
2021/12/24 05:34:22;;;;;;;3.03;2.03;;;;;;;;;;5113467;28;20450;-80
2021/12/24 05:36:50;;;;;;;4.03;2.00;;;;;;;;;;5113818;28;21052;-80
2021/12/24 05:39:18;;;;;;;5.33;2.40;;;;;;;;;;5113164;28;20534;-80
2021/12/24 05:41:46;;;;;;;4.37;2.47;;;;;;;;;;5113800;28;20444;-80
2021/12/24 05:44:15;;;;;;;3.07;2.40;;;;;;;;;;5113431;28;20448;-79
2021/12/24 05:46:44;;;;;;;2.90;1.90;;;;;;;;;;5113497;28;21077;-80
2021/12/24 05:49:11;;;;;;;2.80;2.03;;;;;;;;;;5112532;28;20476;-80
2021/12/24 05:51:40;;;;;;;3.43;2.67;;;;;;;;;;5100184;28;20523;-79
2021/12/24 05:54:07;;;;;;;4.70;2.20;;;;;;;;;;5112745;28;20538;-79
2021/12/24 05:56:34;;;;;;;4.03;2.63;;;;;;;;;;5113793;28;20447;-79
2021/12/24 05:59:01;;;;;;;3.50;2.50;;;;;;;;;;5112817;28;20526;-72
2021/12/24 06:01:28;;;;;;;2.93;2.33;;;;;;;;;;5113611;28;20479;-77
2021/12/24 06:03:59;;;;;;;4.20;2.80;;;;;;;;;;5113033;28;20455;-79
2021/12/24 06:06:26;;;;;;;3.10;2.33;;;;;;;;;;5113652;28;20483;-79
2021/12/24 06:08:54;;;;;;;4.13;2.60;;;;;;;;;;5113104;28;20462;-80
2021/12/24 06:11:21;;;;;;;2.60;1.90;;;;;;;;;;5112785;28;20442;-79
2021/12/24 06:13:53;;;;;;;2.70;2.47;;;;;;;;;;5113188;28;20462;-79
2021/12/24 06:16:20;;;;;;;5.20;2.87;;;;;;;;;;5112833;28;20475;-79
2021/12/24 06:18:47;;;;;;;4.17;2.23;;;;;;;;;;5112720;28;20439;-79
2021/12/24 06:21:15;;;;;;;3.70;2.40;;;;;;;;;;5112626;28;20443;-80
2021/12/24 06:23:43;;;;;;;4.60;2.70;;;;;;;;;;5112892;28;20454;-80
2021/12/24 06:26:12;;;;;;;8.40;2.93;;;;;;;;;;5112860;28;20487;-79
2021/12/24 06:28:39;;;;;;;3.63;2.73;;;;;;;;;;5112261;28;21004;-80
2021/12/24 06:31:07;;;;;;;2.80;2.33;;;;;;;;;;5112564;28;20866;-79
2021/12/24 06:33:34;;;;;;;2.80;2.00;;;;;;;;;;5113050;28;20443;-80
2021/12/24 06:36:01;;;;;;;5.53;2.40;;;;;;;;;;5112241;28;20542;-79
2021/12/24 06:38:28;;;;;;;4.23;2.77;;;;;;;;;;5112472;28;20450;-76
2021/12/24 06:40:56;;;;;;;3.50;2.30;;;;;;;;;;5112646;28;20450;-79
2021/12/24 06:43:24;;;;;;;2.47;2.07;;;;;;;;;;5112504;28;20478;-80
2021/12/24 06:45:52;;;;;;;8.63;3.10;;;;;;;;;;5112387;28;20487;-79
2021/12/24 06:48:19;;;;;;;6.87;2.23;;;;;;;;;;5111383;28;20491;-79
2021/12/24 06:50:46;;;;;;;2.60;2.30;;;;;;;;;;5112427;28;20450;-79
2021/12/24 06:53:14;;;;;;;2.90;2.27;;;;;;;;;;5111852;28;20447;-79
2021/12/24 06:55:41;;;;;;;6.20;2.90;;;;;;;;;;5112556;28;20504;-78
2021/12/24 06:58:08;;;;;;;4.93;2.57;;;;;;;;;;5099125;28;20435;-79
2021/12/24 07:00:37;;;;;;;2.83;2.37;;;;;;;;;;5112090;28;20484;-80
2021/12/24 07:03:04;;;;;;;5.27;3.60;;;;;;;;;;5111568;28;20454;-80
2021/12/24 07:05:31;;;;;;;6.93;2.63;;;;;;;;;;5112219;28;20451;-79
2021/12/24 07:07:59;;;;;;;4.10;2.70;;;;;;;;;;5111411;28;20505;-70
2021/12/24 07:10:26;;;;;;;3.40;2.20;;;;;;;;;;5112442;28;20848;-80
2021/12/24 07:12:53;;;;;;;2.83;2.20;;;;;;;;;;5112421;28;20456;-79
2021/12/24 07:15:20;;;;;;;4.63;2.93;;;;;;;;;;5097049;28;20443;-79
2021/12/24 07:17:49;;;;;;;2.90;2.30;;;;;;;;;;5111735;28;20491;-79
2021/12/24 07:20:17;;;;;;;2.97;2.33;;;;;;;;;;5111487;28;20442;-80
2021/12/24 07:22:44;;;;;;;4.67;3.47;;;;;;;;;;5111908;28;20475;-79
2021/12/24 07:25:11;;;;;;;3.50;2.00;;;;;;;;;;5112984;28;20787;-79
2021/12/24 07:27:38;;;;;;;4.70;3.00;;;;;;;;;;5111533;28;20484;-76
2021/12/24 07:30:08;;;;;;;4.23;2.70;;;;;;;;;;5110880;28;20443;-78
2021/12/24 07:32:35;;;;;;;3.40;2.70;;;;;;;;;;5112098;28;20466;-80
2021/12/24 07:35:04;;;;;;;5.63;2.43;;;;;;;;;;5111006;28;20932;-79
2021/12/24 07:37:32;;;;;;;2.83;2.50;;;;;;;;;;5111735;28;20822;-79
2021/12/24 07:40:00;;;;;;;5.03;3.30;;;;;;;;;;5110783;28;20454;-73
2021/12/24 07:42:27;;;;;;;3.30;2.50;;;;;;;;;;5112120;28;20807;-79
2021/12/24 07:44:55;;;;;;;3.40;2.80;;;;;;;;;;5111376;28;20969;-83
2021/12/24 07:47:31;;;;;;;3.30;2.30;;;;;;;;;;5111094;28;20482;-79
2021/12/24 07:50:02;;;;;;;4.47;2.67;;;;;;;;;;5111634;28;20547;-80
2021/12/24 07:52:31;;;;;;;3.53;2.57;;;;;;;;;;5111289;28;20478;-79
2021/12/24 07:54:58;;;;;;;5.90;3.00;;;;;;;;;;5112165;28;20450;-80
2021/12/24 07:57:25;;;;;;;4.37;2.47;;;;;;;;;;5122654;28;20595;-80
2021/12/24 07:59:52;;;;;;;3.33;3.00;;;;;;;;;;5130703;28;20467;-80
2021/12/24 08:02:23;;;;;;;3.40;2.30;;;;;;;;;;5126757;28;20483;-79
2021/12/24 08:04:51;;;;;;;6.10;2.77;;;;;;;;;;5119542;28;20432;-80
2021/12/24 08:07:20;;;;;;;3.83;2.57;;;;;;;;;;5112571;28;20771;-79
2021/12/24 08:09:48;;;;;;;3.30;2.33;;;;;;;;;;5111335;28;20450;-79
2021/12/24 08:12:16;;;;;;;4.23;3.20;;;;;;;;;;5111110;28;20799;-80
2021/12/24 08:14:43;;;;;;;3.37;2.70;;;;;;;;;;5111589;28;20530;-79
2021/12/24 08:17:10;;;;;;;3.67;2.27;;;;;;;;;;5110912;28;20890;-79
2021/12/24 08:19:37;;;;;;;3.90;2.50;;;;;;;;;;5110930;28;20458;-79
2021/12/24 08:22:05;;;;;;;4.23;2.33;;;;;;;;;;5110613;28;20936;-79
2021/12/24 08:24:33;;;;;;;6.23;2.27;;;;;;;;;;5111368;28;20479;-79
2021/12/24 08:27:01;;;;;;;3.77;2.50;;;;;;;;;;5112804;28;20553;-80
2021/12/24 08:29:28;;;;;;;4.70;2.50;;;;;;;;;;5115341;28;20531;-76
2021/12/24 08:31:56;;;;;;;6.20;2.63;;;;;;;;;;5115310;28;20443;-79
2021/12/24 08:34:24;;;;;;;2.67;2.27;;;;;;;;;;5115470;28;20825;-79
2021/12/24 08:36:54;;;;;;;3.57;2.20;;;;;;;;;;5114868;28;20479;-79
2021/12/24 08:39:22;;;;;;;6.23;2.80;;;;;;;;;;5113881;28;21014;-80
2021/12/24 08:41:54;;;;;;;2.97;2.03;;;;;;;;;;5115030;28;20478;-80
2021/12/24 08:44:23;;;;;;;3.50;2.50;;;;;;;;;;5114120;28;20439;-80
2021/12/24 08:46:50;;;;;;;2.53;2.33;;;;;;;;;;5114501;28;20857;-80
2021/12/24 08:49:18;;;;;;;3.00;2.10;;;;;;;;;;5113803;28;20461;-79
2021/12/24 08:51:45;;;;;;;5.53;2.47;;;;;;;;;;5114762;28;20452;-79
2021/12/24 08:54:12;;;;;;;2.60;2.23;;;;;;;;;;5114066;28;20478;-79
2021/12/24 08:56:40;;;;;;;2.50;2.10;;;;;;;;;;5114864;28;20457;-80
2021/12/24 08:59:07;;;;;;;5.40;2.30;;;;;;;;;;5113435;28;20446;-79
2021/12/24 09:01:35;;;;;;;3.77;1.93;;;;;;;;;;5114929;28;20823;-79
2021/12/24 09:04:03;;;;;;;2.40;2.20;;;;;;;;;;5114092;28;20845;-80
2021/12/24 09:06:30;;;;;;;3.20;2.27;;;;;;;;;;5114691;28;20459;-79
2021/12/24 09:08:57;;;;;;;3.73;2.60;;;;;;;;;;5114147;28;20542;-80
2021/12/24 09:11:25;;;;;;;2.80;2.43;;;;;;;;;;5114687;28;20439;-80
2021/12/24 09:13:53;;;;;;;2.67;2.47;;;;;;;;;;5114058;28;20455;-80
2021/12/24 09:16:20;;;;;;;3.50;2.47;;;;;;;;;;5113642;28;21010;-79
2021/12/24 09:18:56;;;;;;;4.00;2.70;;;;;;;;;;5113617;28;20444;-79
2021/12/24 09:21:24;;;;;;;6.30;2.50;;;;;;;;;;5114295;28;20449;-79
2021/12/24 09:23:53;;;;;;;3.03;2.30;;;;;;;;;;5114169;28;20534;-79
2021/12/24 09:26:27;;;;;;;4.43;2.37;;;;;;;;;;5113677;28;20459;-80
2021/12/24 09:28:55;;;;;;;4.40;3.20;;;;;;;;;;5100132;28;20478;-81
2021/12/24 09:31:23;;;;;;;5.30;2.77;;;;;;;;;;5113211;28;20884;-78
2021/12/24 09:33:51;;;;;;;3.90;3.03;;;;;;;;;;5100433;28;20443;-78
2021/12/24 09:36:24;;;;;;;3.00;2.23;;;;;;;;;;5113227;28;20847;-79
2021/12/24 09:38:51;;;;;;;5.07;2.60;;;;;;;;;;5113106;28;20467;-78
2021/12/24 09:41:18;;;;;;;2.83;2.50;;;;;;;;;;5113259;28;21081;-79
2021/12/24 09:43:45;;;;;;;2.80;2.50;;;;;;;;;;5113628;28;20935;-80
2021/12/24 09:46:12;;;;;;;2.73;2.10;;;;;;;;;;5112974;28;20448;-79
2021/12/24 09:48:40;;;;;;;4.40;2.83;;;;;;;;;;5113530;28;20483;-81
2021/12/24 09:51:09;;;;;;;4.27;2.57;;;;;;;;;;5112997;28;21011;-81
2021/12/24 09:53:37;;;;;;;4.43;2.87;;;;;;;;;;5113831;28;20478;-81
2021/12/24 09:56:04;;;;;;;6.27;3.20;;;;;;;;;;5113071;28;21130;-79
2021/12/24 09:58:31;;;;;;;4.37;2.93;;;;;;;;;;5113371;28;20451;-81
2021/12/24 10:00:59;;;;;;;3.10;2.50;;;;;;;;;;5108728;28;20441;-70
2021/12/24 10:03:30;;;;;;;3.73;2.67;;;;;;;;;;5105072;28;20443;-78
2021/12/24 10:05:57;;;;;;;4.50;2.50;;;;;;;;;;5113558;28;20459;-82
2021/12/24 10:08:26;;;;;;;3.50;2.00;;;;;;;;;;5113048;28;20566;-81
2021/12/24 10:10:55;;;;;;;3.80;3.00;;;;;;;;;;5113602;28;20448;-81
2021/12/24 10:13:33;;;;;;;3.90;2.53;;;;;;;;;;5112939;28;20539;-79
2021/12/24 10:16:01;;;;;;;3.37;2.40;;;;;;;;;;5100183;28;20478;-78
2021/12/24 10:18:34;;;;;;;5.23;2.70;;;;;;;;;;5112926;28;20447;-79
2021/12/24 10:21:03;;;;;;;4.27;2.57;;;;;;;;;;5112663;28;20454;-79
2021/12/24 10:23:48;;;;;;;6.10;3.17;;;;;;;;;;5113003;28;20551;-79
2021/12/24 10:26:17;;;;;;;4.50;3.00;;;;;;;;;;5112904;28;20440;-79
2021/12/24 10:28:52;;;;;;;4.50;2.50;;;;;;;;;;5112641;28;20493;-81
2021/12/24 10:31:20;;;;;;;4.57;2.83;;;;;;;;;;5112488;28;20459;-78
2021/12/24 10:34:10;;;;;;;5.93;2.60;;;;;;;;;;5112997;28;20555;-79
2021/12/24 10:36:52;;;;;;;3.00;2.30;;;;;;;;;;5112630;28;20475;-78
2021/12/24 10:39:21;;;;;;;3.10;2.40;;;;;;;;;;5111820;28;20462;-81
2021/12/24 10:41:50;;;;;;;2.20;2.00;;;;;;;;;;5112695;28;20450;-79
2021/12/24 10:44:17;;;;;;;4.10;2.20;;;;;;;;;;5112313;28;20444;-79
2021/12/24 10:46:58;;;;;;;11.73;2.87;;;;;;;;;;5099181;28;20443;-81
2021/12/24 10:49:37;;;;;;;3.80;2.57;;;;;;;;;;5111358;28;20944;-80
2021/12/24 10:52:13;;;;;;;3.37;2.60;;;;;;;;;;5112113;28;20447;-79
2021/12/24 10:54:51;;;;;;;5.63;2.93;;;;;;;;;;5112168;28;20439;-79
2021/12/24 10:57:20;;;;;;;2.70;2.10;;;;;;;;;;5111583;28;21225;-75
2021/12/24 10:59:49;;;;;;;2.30;2.00;;;;;;;;;;5112491;28;20563;-79
2021/12/24 11:02:16;;;;;;;4.40;2.90;;;;;;;;;;5111738;28;20455;-79
2021/12/24 11:04:43;;;;;;;2.77;1.93;;;;;;;;;;5112465;28;20469;-79
2021/12/24 11:07:31;;;;;;;3.30;1.80;;;;;;;;;;5111275;28;20467;-79
2021/12/24 11:10:13;;;;;;;3.50;2.57;;;;;;;;;;5112416;28;20791;-81
2021/12/24 11:12:41;;;;;;;2.83;1.83;;;;;;;;;;5109638;28;20454;-81
2021/12/24 11:15:19;;;;;;;5.80;2.23;;;;;;;;;;5111582;28;20509;-81
2021/12/24 11:17:46;;;;;;;3.47;2.60;;;;;;;;;;5111725;28;20447;-79
2021/12/24 11:20:13;;;;;;;5.10;2.50;;;;;;;;;;5111465;28;20471;-79
2021/12/24 11:22:51;;;;;;;3.20;2.33;;;;;;;;;;5111819;28;20476;-79
2021/12/24 11:25:20;;;;;;;1.67;1.50;;;;;;;;;;5111551;28;20526;-79
2021/12/24 11:27:47;;;;;;;3.57;1.63;;;;;;;;;;5111751;28;20483;-81
2021/12/24 11:30:15;;;;;;;3.70;2.10;;;;;;;;;;5111192;28;20531;-79
2021/12/24 11:32:42;;;;;;;1.90;1.67;;;;;;;;;;5112096;28;20455;-79
2021/12/24 11:35:09;;;;;;;2.70;1.67;;;;;;;;;;5111392;28;20531;-80
2021/12/24 11:37:38;;;;;;;1.87;1.60;;;;;;;;;;5111330;28;20483;-77
2021/12/24 11:40:06;;;;;;;2.03;1.63;;;;;;;;;;5110831;28;20450;-80
2021/12/24 11:42:39;;;;;;;2.50;1.83;;;;;;;;;;5111474;28;20448;-79
2021/12/24 11:45:07;;;;;;;3.60;1.70;;;;;;;;;;5111176;28;20431;-78
2021/12/24 11:47:34;;;;;;;2.93;1.97;;;;;;;;;;5111304;28;20483;-79
2021/12/24 11:50:01;;;;;;;2.33;1.83;;;;;;;;;;5098118;28;20528;-81
2021/12/24 11:52:29;;;;;;;3.23;2.10;;;;;;;;;;5111386;28;20450;-78
2021/12/24 11:54:57;;;;;;;5.63;1.80;;;;;;;;;;5111688;28;20962;-81
2021/12/24 11:57:24;;;;;;;2.00;1.70;;;;;;;;;;5111505;28;20808;-81
2021/12/24 11:59:53;;;;;;;7.43;2.57;;;;;;;;;;5111672;28;20444;-82
2021/12/24 12:02:37;;;;;;;3.70;2.00;;;;;;;;;;5115340;28;20460;-82
2021/12/24 12:05:26;;;;;;;2.47;1.60;;;;;;;;;;5115198;28;20451;-81
2021/12/24 12:07:54;;;;;;;3.27;1.97;;;;;;;;;;5109894;28;20830;-81
2021/12/24 12:10:36;;;;;;;5.00;1.73;;;;;;;;;;5115134;28;20470;-82
2021/12/24 12:13:03;;;;;;;1.93;1.60;;;;;;;;;;5111957;28;20950;-82
2021/12/24 12:15:32;;;;;;;5.70;2.37;;;;;;;;;;5115501;28;20447;-81
2021/12/24 12:18:04;;;;;;;2.40;1.30;;;;;;;;;;5114774;28;20805;-72
2021/12/24 12:20:42;;;;;;;2.30;1.60;;;;;;;;;;5115482;28;20448;-82
2021/12/24 12:23:14;;;;;;;2.10;1.40;;;;;;;;;;5114771;28;20525;-81
2021/12/24 12:25:42;;;;;;;1.30;1.20;;;;;;;;;;5115353;28;20471;-81
2021/12/24 12:28:15;;;;;;;2.07;1.50;;;;;;;;;;5114547;28;20506;-82
2021/12/24 12:30:50;;;;;;;1.77;1.30;;;;;;;;;;5115560;28;20479;-82
2021/12/24 12:33:19;;;;;;;1.53;1.10;;;;;;;;;;5114797;28;20435;-82
2021/12/24 12:35:48;;;;;;;1.40;0.93;;;;;;;;;;5115286;28;20454;-81
2021/12/24 12:38:25;;;;;;;2.90;1.23;;;;;;;;;;5113737;28;20447;-81
2021/12/24 12:40:53;;;;;;;1.10;1.00;;;;;;;;;;5114943;28;20458;-82
2021/12/24 12:43:21;;;;;;;2.87;0.83;;;;;;;;;;5117277;28;20518;-81
2021/12/24 12:46:06;;;;;;;1.57;0.97;;;;;;;;;;5123442;28;20446;-81
2021/12/24 12:49:00;;;;;;;1.87;1.07;;;;;;;;;;5131299;28;20478;-80
2021/12/24 12:51:48;;;;;;;1.43;1.00;;;;;;;;;;5084160;28;20447;-81
2021/12/24 12:54:30;;;;;;;2.27;1.10;;;;;;;;;;5115402;28;20870;-81
2021/12/24 12:57:18;;;;;;;2.40;1.10;;;;;;;;;;5116245;28;20522;-81
2021/12/24 13:00:00;;;;;;;1.17;1.00;;;;;;;;;;5099475;28;20455;-81
2021/12/24 13:02:42;;;;;;;1.30;1.20;;;;;;;;;;5114365;28;20483;-81
2021/12/24 13:05:13;;;;;;;1.83;1.20;;;;;;;;;;5114565;28;20506;-79
2021/12/24 13:07:40;;;;;;;2.23;1.30;;;;;;;;;;5114151;28;20531;-81
2021/12/24 13:10:09;;;;;;;1.67;0.80;;;;;;;;;;5114032;28;20447;-81
2021/12/24 13:12:36;;;;;;;1.83;0.90;;;;;;;;;;5110810;28;20543;-81
2021/12/24 13:15:05;;;;;;;5.17;1.03;;;;;;;;;;5113700;28;20466;-81
2021/12/24 13:17:33;;;;;;;1.67;1.20;;;;;;;;;;5114270;28;20534;-81
2021/12/24 13:20:15;;;;;;;1.43;1.17;;;;;;;;;;5113732;28;20451;-80
2021/12/24 13:22:41;;;;;;;1.70;0.90;;;;;;;;;;5114574;28;20451;-81
2021/12/24 13:25:12;;;;;;;1.30;1.00;;;;;;;;;;5113338;28;20501;-81
2021/12/24 13:27:41;;;;;;;2.07;1.17;;;;;;;;;;5114072;28;20806;-81
2021/12/24 13:30:10;;;;;;;1.33;1.10;;;;;;;;;;5113704;28;20443;-81
2021/12/24 13:32:41;;;;;;;1.40;1.30;;;;;;;;;;5114061;28;20440;-80
2021/12/24 13:35:08;;;;;;;1.27;0.80;;;;;;;;;;5113674;28;20448;-80
2021/12/24 13:37:36;;;;;;;1.63;0.90;;;;;;;;;;5113387;28;20473;-80
2021/12/24 13:40:04;;;;;;;1.60;1.10;;;;;;;;;;5113116;28;20958;-80
2021/12/24 13:42:41;;;;;;;2.00;0.87;;;;;;;;;;5114252;28;20853;-82
2021/12/24 13:45:09;;;;;;;1.57;1.40;;;;;;;;;;5100565;28;20467;-81
2021/12/24 13:47:52;;;;;;;2.10;1.27;;;;;;;;;;5113406;28;20447;-81
2021/12/24 13:56:17;;;;;;;1.40;1.10;;;;;;;;;;5087964;28;20435;-79
2021/12/24 13:58:50;;;;;;;1.97;1.17;;;;;;;;;;5088522;28;20447;-79
2021/12/24 14:01:17;;;;;;;2.37;1.10;;;;;;;;;;5075114;28;20456;-80
2021/12/24 14:03:44;;;;;;;3.10;1.23;;;;;;;;;;5088912;28;20445;-78
2021/12/24 14:06:11;;;;;;;1.50;1.27;;;;;;;;;;5088298;28;20540;-79
2021/12/24 14:08:40;;;;;;;1.60;1.00;;;;;;;;;;5088115;28;20452;-79
2021/12/24 14:11:09;;;;;;;1.23;0.83;;;;;;;;;;5087564;28;20488;-79
2021/12/24 14:13:40;;;;;;;2.00;1.50;;;;;;;;;;5088605;28;20494;-80
2021/12/24 14:16:14;;;;;;;2.40;1.40;;;;;;;;;;5087484;28;20535;-78
2021/12/24 14:18:48;;;;;;;1.33;1.10;;;;;;;;;;5088024;28;20935;-79
2021/12/24 14:24:13;;;;;;;1.73;1.20;;;;;;;;;;5087374;28;20912;-79
2021/12/24 14:26:41;;;;;;;1.33;1.10;;;;;;;;;;5088306;28;20440;-79
2021/12/24 14:29:09;;;;;;;1.70;1.33;;;;;;;;;;5087296;28;20453;-79
2021/12/24 14:31:51;;;;;;;2.20;1.40;;;;;;;;;;5087908;28;20479;-79
2021/12/24 14:34:31;;;;;;;2.03;1.40;;;;;;;;;;5085784;28;20712;-80
2021/12/24 14:36:59;;;;;;;1.97;1.10;;;;;;;;;;5086949;28;20916;-73
2021/12/24 14:39:34;;;;;;;1.67;1.10;;;;;;;;;;5088088;28;20440;-78
2021/12/24 14:42:11;;;;;;;2.07;1.30;;;;;;;;;;5079606;28;20523;-79
2021/12/24 14:44:38;;;;;;;3.10;1.10;;;;;;;;;;5087740;28;20451;-79
2021/12/24 14:47:06;;;;;;;1.10;0.90;;;;;;;;;;5087089;28;20445;-79
2021/12/24 14:49:33;;;;;;;1.40;1.00;;;;;;;;;;5087826;28;20552;-79
2021/12/24 14:52:20;;;;;;;2.57;1.30;;;;;;;;;;5086780;28;20499;-80
2021/12/24 14:55:06;;;;;;;2.37;1.27;;;;;;;;;;5087632;28;20440;-80
2021/12/24 14:57:35;;;;;;;1.83;1.10;;;;;;;;;;5087501;28;20809;-80
2021/12/24 15:00:06;;;;;;;1.10;1.00;;;;;;;;;;5087209;28;20518;-79
2021/12/24 15:02:33;;;;;;;1.43;1.20;;;;;;;;;;5087073;28;20457;-79
2021/12/24 15:05:01;;;;;;;2.23;1.33;;;;;;;;;;5073082;28;20453;-78
2021/12/24 15:07:31;;;;;;;2.20;1.40;;;;;;;;;;5073731;28;20463;-81
2021/12/24 15:10:09;;;;;;;1.97;1.23;;;;;;;;;;5073128;28;20452;-70
2021/12/24 15:12:43;;;;;;;2.07;1.70;;;;;;;;;;5073862;28;20496;-79
2021/12/24 15:15:11;;;;;;;1.83;1.40;;;;;;;;;;5073254;28;20472;-79
2021/12/24 15:17:39;;;;;;;4.17;2.50;;;;;;;;;;5073562;28;20449;-79
2021/12/24 15:20:07;;;;;;;2.03;1.63;;;;;;;;;;5072884;28;20968;-78
2021/12/24 15:22:34;;;;;;;2.63;1.67;;;;;;;;;;5074195;28;20449;-80
2021/12/24 15:25:01;;;;;;;3.20;2.00;;;;;;;;;;5073058;28;20532;-80
2021/12/24 15:27:32;;;;;;;3.77;1.80;;;;;;;;;;5073385;28;20449;-76
2021/12/24 15:30:02;;;;;;;2.70;1.40;;;;;;;;;;5073026;28;20450;-79
2021/12/24 15:32:29;;;;;;;2.60;1.40;;;;;;;;;;5073659;28;20481;-77
2021/12/24 15:34:56;;;;;;;2.20;1.57;;;;;;;;;;5073500;28;20460;-80
2021/12/24 15:37:23;;;;;;;1.30;1.10;;;;;;;;;;5072403;28;20949;-80
2021/12/24 15:39:50;;;;;;;2.90;1.87;;;;;;;;;;5073025;28;20445;-80
2021/12/24 15:42:19;;;;;;;1.93;1.40;;;;;;;;;;5072728;28;20453;-80
2021/12/24 15:44:48;;;;;;;1.83;1.00;;;;;;;;;;5073542;28;20467;-80
2021/12/24 15:47:16;;;;;;;2.10;1.47;;;;;;;;;;5072038;28;20954;-80
2021/12/24 15:49:44;;;;;;;2.23;1.80;;;;;;;;;;5072885;28;20448;-80
2021/12/24 15:52:11;;;;;;;1.60;1.37;;;;;;;;;;5072652;28;20493;-80
2021/12/24 15:54:39;;;;;;;2.50;1.70;;;;;;;;;;5073144;28;20441;-80
2021/12/24 15:57:06;;;;;;;2.77;1.70;;;;;;;;;;5072361;28;20453;-80
2021/12/24 15:59:35;;;;;;;2.33;1.83;;;;;;;;;;5073029;28;20469;-82
2021/12/24 16:02:02;;;;;;;2.87;1.80;;;;;;;;;;5072655;28;20448;-80
2021/12/24 16:04:33;;;;;;;2.77;1.47;;;;;;;;;;5072640;28;20451;-81
2021/12/24 16:07:00;;;;;;;2.10;1.40;;;;;;;;;;5072029;28;20445;-82
2021/12/24 16:09:28;;;;;;;2.83;1.30;;;;;;;;;;5072977;28;20456;-80
2021/12/24 16:11:55;;;;;;;3.77;1.70;;;;;;;;;;5072797;28;20448;-79
2021/12/24 16:14:22;;;;;;;1.93;1.53;;;;;;;;;;5071778;28;20937;-80
2021/12/24 16:16:50;;;;;;;2.13;1.83;;;;;;;;;;5071936;28;20488;-80
2021/12/24 16:19:18;;;;;;;2.87;2.00;;;;;;;;;;5072139;28;20460;-80
2021/12/24 16:21:46;;;;;;;1.87;1.33;;;;;;;;;;5072553;28;20467;-82
2021/12/24 16:24:13;;;;;;;1.97;1.77;;;;;;;;;;5072208;28;20552;-80